21:09
Airports
History
Links
Donate
Help keep this website running!
PayPal
Bitcoin
This page is community maintained. The information is intended for PC simulator navigation or reference.
Always use approved charts for navigation.
CPS2
Elmhirst Resort
Elmhirst Resort (CPS2)
Keene, Ontario, Canada
(C)
Lat/Lng:44° 15' 3.35" N / 78° 7' 0.96" W
44.250931 / -78.116933
Elevation:650'ft / 198mMSL
ID / ICAO:CPS2
Runways:1
Longest:(06-24) 853.0m / 2,799ft Grass
Controlled:Yes
Distance To
Airport ID:
Airport Radio Frequencies
Elmhirst Unicom: 122.8
Nearby VORs <50NM
Nearby NDBs
Nearby WeatherUpdated 08-20-17 21:00 GMT
Nearby weather at CYPQ, Peterborough located 12.3 nautical miles from CPS2
Altimeter: 30.03
Visibility: 9.0 statute miles
Wind: 8 knots (220°)
Temp: 26°c 79°f
Humidity: 61.4%

METAR: CYPQ 202100Z AUTO 22008KT 180V250 9SM CLR 26/18 A3003 RMK SLP172 DENSITY ALT 1800FT

(Powered by phpweather)
Runway 06 / 24
Dimensions:853 x 14.9m 2799' x 49'ft
Surface:Grass
Runway 06 [A]Runway 24 [B]
Heading:048°TH 228°TH
Lat:
Lng:
44° 14' 54.1"N
78° 7' 15.3"W
44° 15' 12.6"N
78° 6' 46.62"W
User Notes and Comments
Google Map
Nearby Airports
(U) Peterborough 12.3 NM
CYPQ (WX) W 263°
(R) Trenton 30.6 NM
CYTR (WX) ESE 107°
(U) Lindsay 33.9 NM
NF4 WNW 283°
(C) Mountain View 40.6 NM
PZ3 ESE 107°
(C) Oshawa 44.8 NM
CYOO WSW 239°
(U) MOHAWK 50.1 NM
CPU6 E 95°
4 Baldwin 60.4 NM
PB9 W 271°
VFR Chart
Flight Planning at SkyVector.com